^ Back to Top

Niederschlagsradar DWD

© Deutscher Wetterdienst, Offenbach (DWD)

Aviation WX

[source: ADDS]
METAR
EDDN 071020Z 12006KT 4700 BR OVC003 M02/M03 Q1035 R28/19//95 BECMG 5000 =
TAF
TAF AMD EDDN 070725Z 0707/0806 10005KT 3500 BR OVC003 TEMPO 0708/0717 6000 BKN006 BECMG 0718/0721 0300 FZFG VV001 TEMPO 0802/0806 NSC =
SR / SS: 06:57 / 15:17 UTC (ETHR 2016-12-07)

Statistiken

Besucher
42
Beiträge
36
Weblinks
10
Anzahl Beitragshäufigkeit
60495